• Join FlightAware (Why Join?)
  • Login
  • US Flag 
05:18AM EDT


 

Airport Tracker/Info


-or-


 

Live Flight TrackerFlight Track Log ✈ SWA378 ✈ 08-May-2013 ✈ KLAX - KATL

Flight Track Log - Related Links

Times and Time Zones

All times are in EDT time to prevent confusion due to time zone crossing. See the SWA378 flight status page for this flight to view local times or setup timezone preferences in your user account.

Time Position Orientation Groundspeed Altitude Reporting Facility
EDT Latitude Longitude Course Direction KTS MPH feet Rate Location/Type
01:21PM 33.8917 -118.5300 214° Southwest 252 290 4,200  Level Los Angeles Center
01:22PM 33.8108 -118.5247 177° South 277 319 7,100 3,060 Climbing Los Angeles Center
01:23PM 33.7311 -118.5231 179° South 291 335 10,600 2,640 Climbing Los Angeles Center
01:24PM 33.6758 -118.4533 134° Southeast 336 387 12,600 2,580 Climbing Los Angeles Center
01:25PM 33.6333 -118.2035 90° East  Level FlightAware Approximate
01:25PM 33.6431 -118.3211 107° East 359 413 16,000  Level Los Angeles Center
01:26PM 33.6442 -118.1986 89° East 377 434 18,100 2,040 Climbing Los Angeles Center
01:27PM 33.6442 -118.0675 90° East 395 455 20,300 2,220 Climbing Los Angeles Center
01:28PM 33.6442 -117.9319 90° East 407 468 22,700 1,800 Climbing Los Angeles Center
01:29PM 33.6433 -117.7631 90° East 423 487 24,100 1,440 Climbing Los Angeles Center
01:30PM 33.6431 -117.6164 90° East 438 504 25,700 1,500 Climbing Los Angeles Center
01:31PM 33.6419 -117.4667 90° East 450 518 27,300 1,440 Climbing Los Angeles Center
01:32PM 33.6414 -117.3103 90° East 466 536 28,800 1,380 Climbing Los Angeles Center
01:33PM 33.6400 -117.1514 91° East 476 548 30,200 1,500 Climbing Los Angeles Center
01:34PM 33.6386 -116.9903 91° East 484 557 31,900 1,740 Climbing Los Angeles Center
01:35PM 33.6556 -116.8036 84° East 485 558 33,900 1,500 Climbing Los Angeles Center
01:36PM 33.6883 -116.6517 75° East 472 543 35,000 660 Climbing Los Angeles Center
01:37PM 33.7236 -116.4944 75° East 479 551 35,300 600 Climbing Los Angeles Center
01:38PM 33.7344 -116.3325 85° East 487 560 36,300 780 Climbing Los Angeles Center
01:39PM 33.7531 -116.1717 82° East 488 562 37,000 300 Climbing Los Angeles Center
01:40PM 33.7808 -116.0125 78° East 487 560 37,000  Level Los Angeles Center
01:41PM 33.8139 -115.8217 78° East 484 557 37,000  Level Los Angeles Center
01:42PM 33.8419 -115.6625 78° East 485 558 37,000  Level Los Angeles Center
01:43PM 33.8681 -115.5028 79° East 487 560 37,000  Level Los Angeles Center
01:45PM 33.8967 -115.3447 78° East 486 559 37,000  Level Los Angeles Center
01:46PM 33.9225 -115.1847 79° East 486 559 37,000  Level Los Angeles Center
01:47PM 33.9492 -115.0244 79° East 487 560 37,000  Level Los Angeles Center
01:48PM 33.9842 -114.8311 78° East 491 565 37,000  Level Los Angeles Center
01:49PM 34.0092 -114.6700 79° East 490 564 37,000  Level Los Angeles Center
01:50PM 34.0375 -114.5083 78° East 493 567 37,000  Level Los Angeles Center
01:51PM 34.0631 -114.3469 79° East 491 565 37,000  Level Los Angeles Center
01:52PM 34.0892 -114.1864 79° East 489 563 37,000  Level Los Angeles Center
01:53PM 34.1156 -114.0253 79° East 490 564 37,000  Level Los Angeles Center
01:54PM 34.1461 -113.8294 79° East 496 571 37,000  Level Los Angeles Center
01:55PM 34.1725 -113.6772 78° East 490 564 37,000  Level Albuquerque Center
01:56PM 34.1964 -113.5103 80° East 493 567 37,000  Level Albuquerque Center
01:57PM 34.2211 -113.3478 80° East 493 567 37,000  Level Albuquerque Center
01:58PM 34.2444 -113.1844 80° East 494 568 37,000  Level Albuquerque Center
01:59PM 34.2756 -112.9856 79° East 497 572 37,000  Level Albuquerque Center
02:00PM 34.3008 -112.8222 79° East 497 572 37,000  Level Albuquerque Center
02:01PM 34.3256 -112.6558 80° East 499 574 37,000  Level Albuquerque Center
02:02PM 34.3517 -112.4917 79° East 498 573 37,000  Level Albuquerque Center
02:03PM 34.3753 -112.3250 80° East 498 573 37,000  Level Albuquerque Center
02:04PM 34.3997 -112.1586 80° East 499 574 37,000  Level Albuquerque Center
02:05PM 34.4228 -111.9925 80° East 499 574 37,000  Level Albuquerque Center
02:06PM 34.4511 -111.7917 80° East 500 575 37,000  Level Albuquerque Center
02:07PM 34.4750 -111.6242 80° East 501 577 37,000  Level Albuquerque Center
02:08PM 34.4975 -111.4583 81° East 498 573 37,000  Level Albuquerque Center
02:09PM 34.5211 -111.2914 80° East 500 575 37,000  Level Albuquerque Center
02:10PM 34.5442 -111.1247 80° East 500 575 37,000  Level Albuquerque Center
02:11PM 34.5664 -110.9572 81° East 502 578 37,000  Level Albuquerque Center
02:12PM 34.5869 -110.7900 81° East 502 578 37,000  Level Albuquerque Center
02:13PM 34.6150 -110.5906 80° East 506 582 37,000  Level Albuquerque Center
02:14PM 34.6361 -110.4306 81° East 504 580 37,000  Level Albuquerque Center
02:16PM 34.6597 -110.2456 81° East 500 575 37,000  Level Albuquerque Center
02:17PM 34.6797 -110.0844 81° East 502 578 37,000  Level Albuquerque Center
02:18PM 34.7036 -109.8972 81° East 504 580 37,000  Level Albuquerque Center
02:19PM 34.7219 -109.7361 82° East 504 580 37,000  Level Albuquerque Center
02:20PM 34.7453 -109.5483 81° East 505 581 37,000  Level Albuquerque Center
02:21PM 34.7647 -109.3875 82° East 505 581 37,000  Level Albuquerque Center
02:22PM 34.7844 -109.2258 82° East 505 581 37,000  Level Albuquerque Center
02:23PM 34.8061 -109.0372 82° East 506 582 37,000  Level Albuquerque Center
02:24PM 34.8250 -108.8775 82° East 503 579 37,000  Level Albuquerque Center
02:25PM 34.8475 -108.6903 82° East 502 578 37,000  Level Albuquerque Center
02:26PM 34.8658 -108.5297 82° East 502 578 37,000  Level Albuquerque Center
02:27PM 34.8856 -108.3431 83° East 500 575 37,000  Level Albuquerque Center
02:28PM 34.9031 -108.1850 82° East 497 572 37,000  Level Albuquerque Center
02:29PM 34.9233 -107.9986 82° East 497 572 37,000  Level Albuquerque Center
02:30PM 34.9419 -107.8408 82° East 496 571 37,000  Level Albuquerque Center
02:31PM 34.9567 -107.6953 83° East 497 572 37,000  Level Albuquerque Center
02:32PM 34.9769 -107.4944 83° East 498 573 37,000  Level Albuquerque Center
02:33PM 34.9942 -107.3258 83° East 500 575 37,000  Level Albuquerque Center
02:34PM 35.0122 -107.1433 83° East 505 581 37,000  Level Albuquerque Center
02:35PM 35.0292 -106.9803 83° East 505 581 37,000  Level Albuquerque Center
02:36PM 35.0453 -106.7942 84° East 495 570 37,000  Level Albuquerque Center
02:37PM 35.0514 -106.6339 87° East 495 570 37,000  Level Albuquerque Center
02:38PM 35.0600 -106.4606 86° East 509 586 37,000  Level Albuquerque Center
02:39PM 35.0661 -106.2933 87° East 499 574 37,000  Level Albuquerque Center
02:40PM 35.0733 -106.1272 87° East 492 566 37,000  Level Albuquerque Center
02:41PM 35.0808 -105.9594 87° East 494 568 37,000  Level Albuquerque Center
02:42PM 35.0872 -105.7786 87° East 493 567 37,000  Level Albuquerque Center
02:43PM 35.0931 -105.6100 88° East 493 567 37,000  Level Albuquerque Center
02:44PM 35.0992 -105.4106 88° East 499 574 37,000  Level Albuquerque Center
02:45PM 35.1050 -105.2417 88° East 496 571 37,000  Level Albuquerque Center
02:46PM 35.1106 -105.0747 88° East 490 564 37,000  Level Albuquerque Center
02:47PM 35.1181 -104.9061 87° East 492 566 37,000  Level Albuquerque Center
02:48PM 35.1269 -104.7397 86° East 489 563 37,000  Level Albuquerque Center
02:49PM 35.1342 -104.5683 87° East 492 566 37,000  Level Albuquerque Center
02:50PM 35.1442 -104.4022 86° East 491 565 37,000  Level Albuquerque Center
02:52PM 35.1508 -104.2358 87° East 492 566 37,000  Level Albuquerque Center
02:53PM 35.1586 -104.0700 87° East 490 564 37,000  Level Albuquerque Center
02:54PM 35.1658 -103.8819 87° East 494 568 37,000  Level Albuquerque Center
02:55PM 35.1725 -103.7114 87° East 498 573 37,000  Level Albuquerque Center
02:56PM 35.1797 -103.5433 87° East 494 568 37,000  Level Albuquerque Center
02:57PM 35.1858 -103.3758 87° East 492 566 37,000  Level Albuquerque Center
02:58PM 35.1928 -103.1808 87° East 490 564 37,000  Level Albuquerque Center
02:59PM 35.1992 -103.0142 87° East 489 563 37,000  Level Albuquerque Center
03:00PM 35.2031 -102.8711 88° East 489 563 37,000  Level Albuquerque Center
03:01PM 35.2094 -102.6722 88° East 489 563 37,000  Level Albuquerque Center
03:02PM 35.2147 -102.5067 88° East 488 562 37,000  Level Albuquerque Center
03:03PM 35.2194 -102.3422 88° East 487 560 37,000  Level Albuquerque Center
03:04PM 35.2236 -102.1756 88° East 490 564 37,000  Level Albuquerque Center
03:05PM 35.2469 -102.0125 80° East 488 562 37,000  Level Albuquerque Center
03:06PM 35.2817 -101.8214 77° East 491 565 37,000  Level Albuquerque Center
03:07PM 35.3103 -101.6567 78° East 491 565 37,000  Level Albuquerque Center
03:08PM 35.3353 -101.5172 78° East 489 563 37,000  Level Albuquerque Center
03:09PM 35.3686 -101.3225 78° East 486 559 37,000  Level Albuquerque Center
03:10PM 35.3961 -101.1550 79° East 485 558 37,000  Level Albuquerque Center
03:11PM 35.4147 -100.9933 82° East 478 550 37,000  Level Albuquerque Center
03:12PM 35.4131 -100.8292 91° East 483 556 37,000  Level Albuquerque Center
03:13PM 35.4128 -100.6639 90° East 485 558 37,000  Level Albuquerque Center
03:14PM 35.4114 -100.5025 91° East 486 559 37,000  Level Albuquerque Center
03:15PM 35.4103 -100.3033 90° East 487 560 37,000  Level Albuquerque Center
03:16PM 35.4078 -100.1344 91° East 493 567 37,000  Level Albuquerque Center
03:17PM 35.4061 -99.9700 91° East 488 562 37,000  Level Albuquerque Center
03:18PM 35.4050 -99.8053 90° East 486 559 37,000  Level Albuquerque Center
03:19PM 35.4028 -99.6408 91° East 484 557 37,000 360 Level Albuquerque Center
03:20PM 35.4000 -99.5808 93° East 487 560 37,500 1,020 Climbing Fort Worth Center
03:21PM 35.3986 -99.4153 91° East 482 555 38,400 720 Climbing Fort Worth Center
03:22PM 35.3947 -99.2497 92° East 482 555 39,000 300 Climbing Fort Worth Center
03:23PM 35.3931 -99.0839 91° East 482 555 39,000  Level Fort Worth Center
03:24PM 35.3908 -98.9186 91° East 482 555 39,000  Level Fort Worth Center
03:25PM 35.3864 -98.7503 92° East 482 555 39,000  Level Fort Worth Center
03:26PM 35.3839 -98.5875 91° East 482 555 39,000  Level Fort Worth Center
03:27PM 35.3814 -98.4244 91° East 477 549 39,000  Level Fort Worth Center
03:28PM 35.3761 -98.2589 92° East 477 549 39,000  Level Fort Worth Center
03:29PM 35.3711 -98.0933 92° East 477 549 39,000  Level Fort Worth Center
03:30PM 35.3656 -97.9303 92° East 477 549 39,000  Level Fort Worth Center
03:31PM 35.3619 -97.7700 92° East 477 549 39,000  Level Fort Worth Center
03:32PM 35.3561 -97.6094 93° East 477 549 39,000  Level Fort Worth Center
03:33PM 35.3644 -97.4264 87° East 479 551 39,000  Level Fort Worth Center
03:34PM 35.3644 -97.2658 90° East 479 551 39,000  Level Fort Worth Center
03:35PM 35.3661 -97.1031 89° East 479 551 39,000  Level Fort Worth Center
03:36PM 35.3700 -96.9478 88° East 468 539 39,000  Level Fort Worth Center
03:37PM 35.3714 -96.7872 89° East 468 539 39,000  Level Fort Worth Center
03:38PM 35.3747 -96.6319 88° East 462 532 39,000  Level Fort Worth Center
03:39PM 35.3778 -96.4689 89° East 462 532 39,000  Level Fort Worth Center
03:40PM 35.3783 -96.3061 90° East 462 532 39,000  Level Fort Worth Center
03:41PM 35.3789 -96.1456 90° East 467 537 39,000  Level Fort Worth Center
03:42PM 35.3836 -95.9825 88° East 472 543 39,000  Level Fort Worth Center
03:43PM 35.3858 -95.8247 89° East 472 543 39,000  Level Fort Worth Center
03:44PM 35.3858 -95.6642 90° East 472 543 39,000  Level Fort Worth Center
03:46PM 35.3878 -95.2825 90° East 472 543 39,000  Level Memphis Center
03:47PM 35.3878 -95.1244 90° East 472 543 39,000  Level Memphis Center
03:48PM 35.3894 -94.9667 89° East 467 537 39,000  Level Memphis Center
03:49PM 35.3869 -94.8036 91° East 467 537 39,000  Level Memphis Center
03:50PM 35.3883 -94.6458 89° East 467 537 39,000  Level Memphis Center
03:51PM 35.3875 -94.4853 90° East 462 532 39,000  Level Memphis Center
03:52PM 35.3872 -94.3019 90° East 471 542 39,000  Level Memphis Center
03:53PM 35.3775 -94.1436 94° East 476 548 39,000  Level Memphis Center
03:54PM 35.3678 -93.9828 94° East 476 548 39,000  Level Memphis Center
03:55PM 35.3556 -93.8244 95° East 476 548 39,000  Level Memphis Center
03:56PM 35.3447 -93.6839 95° East 476 548 39,000  Level Memphis Center
03:57PM 35.3344 -93.5258 95° East 471 542 39,000  Level Memphis Center
03:58PM 35.3200 -93.3497 96° East 466 536 39,000  Level Memphis Center
03:59PM 35.3108 -93.2017 94° East 453 521 39,000  Level Memphis Center
04:00PM 35.2978 -93.0436 96° East 453 521 39,000  Level Memphis Center
04:01PM 35.2842 -92.8881 96° East 453 521 39,000  Level Memphis Center
04:02PM 35.2728 -92.7325 95° East 461 531 39,000  Level Memphis Center
04:03PM 35.2589 -92.5819 96° East 471 542 39,000  Level Memphis Center
04:04PM 35.2447 -92.4267 96° East 471 542 39,000  Level Memphis Center
04:05PM 35.2328 -92.2686 95° East 464 534 39,000  Level Memphis Center
04:06PM 35.2183 -92.1158 97° East 464 534 39,000  Level Memphis Center
04:07PM 35.2058 -91.9631 96° East 464 534 39,000  Level Memphis Center
04:08PM 35.1931 -91.8106 96° East 459 528 39,000  Level Memphis Center
04:09PM 35.1781 -91.6578 97° East 454 522 39,000  Level Memphis Center
04:10PM 35.1647 -91.5078 96° East 454 522 39,000  Level Memphis Center
04:11PM 35.1517 -91.3425 98° East 449 517 39,000  Level Memphis Center
04:12PM 35.1408 -91.3117 98° East  Level FlightAware Approximate
04:12PM 35.1381 -91.1900 96° East 444 511 39,000  Level Memphis Center
04:13PM 35.1225 -91.0350 97° East 449 517 39,000  Level Memphis Center
04:14PM 35.1106 -90.9003 96° East 455 524 39,000  Level Memphis Center
04:15PM 35.0944 -90.7428 97° East 460 529 39,000  Level Memphis Center
04:17PM 35.0710 -90.5459 98° East  Level FlightAware Approximate
04:17PM 35.0636 -90.4358 98° East 465 535 39,000  Level Memphis Center
04:18PM 35.0469 -90.2758 97° East 465 535 39,000  Level Memphis Center
04:19PM 35.0322 -90.1236 97° East 460 529 39,000  Level Memphis Center
04:20PM 35.0150 -89.9539 97° East 460 529 39,000  Level Memphis Center
04:21PM 34.9978 -89.7969 98° East 468 539 39,000  Level Memphis Center
04:22PM 34.9719 -89.6322 101° East 482 555 39,000  Level Memphis Center
04:23PM 34.9417 -89.4781 103° East 475 547 39,000  Level Memphis Center
04:24PM 34.9217 -89.3389 100° East 464 534 39,000  Level Memphis Center
04:25PM 34.8975 -89.1847 101° East 464 534 39,000 -420 Level Memphis Center
04:26PM 34.8728 -89.0281 101° East 471 542 38,200 -900 Descending Memphis Center
04:27PM 34.8503 -88.8742 100° East 466 536 37,300 -960 Descending Memphis Center
04:28PM 34.8253 -88.7203 101° East 466 536 36,300 -960 Descending Memphis Center
04:29PM 34.7981 -88.5489 101° East 466 536 35,400 -660 Descending Memphis Center
04:30PM 34.7750 -88.4028 101° East 458 527 35,000 -240 Descending Memphis Center
04:31PM 34.7517 -88.2517 101° East 452 520 35,000  Level Memphis Center
04:32PM 34.7258 -88.0906 101° East 462 532 35,000  Level Memphis Center
04:33PM 34.7019 -87.9372 101° East 471 542 35,000  Level Memphis Center
04:34PM 34.6781 -87.7861 101° East 459 528 35,000  Level Memphis Center
04:35PM 34.6497 -87.6331 103° East 459 528 35,000 -600 Level Memphis Center
04:38PM 34.5889 -87.2633 101° East 471 542 33,000 -600 Descending Atlanta Center
04:39PM 34.5575 -87.1083 104° East 471 542 33,000  Level Atlanta Center
04:40PM 34.5278 -86.9533 103° East 471 542 33,000  Level Atlanta Center
04:41PM 34.4981 -86.7961 103° East 471 542 33,000  Level Atlanta Center
04:42PM 34.4681 -86.6414 103° East 471 542 33,000  Level Atlanta Center
04:43PM 34.4358 -86.4819 104° East 471 542 33,000  Level Atlanta Center
04:44PM 34.4056 -86.3247 103° East 471 542 33,000 -420 Level Atlanta Center
04:45PM 34.3747 -86.1681 103° East 471 542 32,200 -1,500 Descending Atlanta Center
04:46PM 34.3461 -86.0189 103° East 466 536 30,000 -2,220 Descending Atlanta Center
04:47PM 34.3169 -85.8722 103° East 455 524 27,800 -2,040 Descending Atlanta Center
04:48PM 34.2917 -85.7486 104° East 428 493 26,000 -2,040 Descending Atlanta Center
04:50PM 34.2386 -85.4811 103° East 406 467 21,800 -2,100 Descending Atlanta Center
04:51PM 34.2111 -85.3500 104° East 397 457 19,800 -2,040 Descending Atlanta Center
04:52PM 34.1872 -85.2267 103° East 385 443 17,800 -2,040 Descending Atlanta Center
04:53PM 34.1528 -85.1106 110° East 374 430 15,800 -1,920 Descending Atlanta Center
04:54PM 34.0847 -85.0194 132° Southeast 361 415 14,000 -1,380 Descending Atlanta Center
04:55PM 34.0103 -84.9233 133° Southeast 361 415 13,100 -900 Descending Atlanta Center
04:56PM 33.9419 -84.8375 134° Southeast 356 410 12,200 -600 Descending Atlanta Center
04:57PM 33.8778 -84.7594 135° Southeast 344 396 12,000 -120 Descending Atlanta Center
04:57PM 33.8333 -84.7000 132° Southeast 285 328 12,000  Level Atlanta TRACON
04:59PM 33.7833 -84.6333 132° Southeast 264 304 12,000 -120 Level Atlanta TRACON
04:59PM 33.7333 -84.5667 132° Southeast 269 310 11,800 -720 Descending Atlanta TRACON
05:01PM 33.7333 -84.4667 90° East 268 308 10,600 -1,080 Descending Atlanta TRACON
05:02PM 33.7333 -84.3833 90° East 265 305 9,600 -1,080 Descending Atlanta TRACON
05:03PM 33.7333 -84.3000 90° East 256 295 8,500 -1,200 Descending Atlanta TRACON
05:04PM 33.7333 -84.2167 90° East 248 285 7,300 -840 Descending Atlanta TRACON
05:04PM 33.7167 -84.1667 112° Southeast 239 275 7,000 -840 Descending Atlanta TRACON
05:05PM 33.6667 -84.2000 209° Southwest 194 223 5,800 -1,500 Descending Atlanta TRACON
05:06PM 33.6500 -84.2500 248° West 186 214 4,100 -1,620 Descending Atlanta TRACON
05:07PM 33.6500 -84.3167 270° West 171 197 2,600 -1,200 Descending Atlanta TRACON
05:08PM 33.6500 -84.3500 270° West 135 155 1,800 -780 Descending Atlanta TRACON
05:09PM 33.6500 -84.4000 270° West 140 161 1,100 -720 Descending Atlanta TRACON
05:11PM 33.6333 -84.4167 248° West  Level FlightAware Approximate
05:18PM 33.6367 -84.4279 248° West  Level Estimated